Time;durP1;ratioP1;P1;durP2;ratioP2;P2;SDS_P1;SDS_P2;PMS_P1;PMS_P2;Temp;Humidity;BMP_temperature;BMP_pressure;BME280_temperature;BME280_humidity;BME280_pressure;Samples;Min_cycle;Max_cycle;Signal;HPM_P1;HPM_P2
2022/07/07 00:01:39;;;;;;;3.27;1.70;;;;;;;17.01;57.22;100638.91;4993337;28;20251;-76
2022/07/07 00:04:05;;;;;;;5.33;1.60;;;;;;;17.10;56.27;100629.59;4990312;28;20189;-77
2022/07/07 00:06:31;;;;;;;3.73;1.30;;;;;;;17.04;55.12;100628.31;4991622;28;20237;-76
2022/07/07 00:08:56;;;;;;;4.30;1.77;;;;;;;17.07;55.40;100628.06;4990740;28;20259;-77
2022/07/07 00:11:23;;;;;;;2.40;1.30;;;;;;;17.10;54.87;100627.84;4983302;28;20241;-78
2022/07/07 00:13:48;;;;;;;6.87;1.80;;;;;;;17.16;54.84;100623.94;4989683;28;20184;-75
2022/07/07 00:16:13;;;;;;;2.17;1.30;;;;;;;17.23;55.39;100626.94;4992423;28;20258;-77
2022/07/07 00:18:39;;;;;;;3.93;1.50;;;;;;;17.23;54.92;100625.16;5000270;28;20183;-76
2022/07/07 00:21:04;;;;;;;2.33;1.40;;;;;;;17.18;55.33;100624.69;4994380;28;20237;-78
2022/07/07 00:23:30;;;;;;;6.97;1.67;;;;;;;16.91;56.33;100624.91;4993381;28;20183;-76
2022/07/07 00:25:56;;;;;;;3.50;1.47;;;;;;;16.97;55.47;100619.28;4994957;28;20234;-76
2022/07/07 00:28:21;;;;;;;5.90;1.60;;;;;;;16.97;55.57;100621.88;4993072;28;20234;-76
2022/07/07 00:30:48;;;;;;;2.63;1.30;;;;;;;16.93;56.11;100617.84;4990232;28;20235;-77
2022/07/07 00:33:14;;;;;;;3.07;1.40;;;;;;;16.92;55.97;100611.81;4993384;28;20659;-77
2022/07/07 00:35:40;;;;;;;1.77;1.20;;;;;;;16.82;56.27;100609.97;4992930;28;20663;-76
2022/07/07 00:38:05;;;;;;;3.87;1.03;;;;;;;16.79;56.16;100608.44;5007168;28;20210;-76
2022/07/07 00:40:30;;;;;;;1.20;1.00;;;;;;;16.83;55.60;100603.84;4985864;28;20231;-74
2022/07/07 00:42:57;;;;;;;1.27;1.10;;;;;;;16.87;55.34;100608.72;4992892;28;20187;-77
2022/07/07 00:45:23;;;;;;;4.67;1.30;;;;;;;16.78;56.08;100602.41;4994509;28;20191;-77
2022/07/07 00:47:48;;;;;;;3.67;1.20;;;;;;;16.67;56.42;100597.19;4993082;28;20336;-78
2022/07/07 00:50:13;;;;;;;2.17;1.00;;;;;;;16.67;56.87;100591.97;4983883;28;20283;-75
2022/07/07 00:52:39;;;;;;;3.67;1.40;;;;;;;16.68;57.34;100587.59;4993708;28;20677;-77
2022/07/07 00:55:08;;;;;;;3.10;1.20;;;;;;;16.53;57.44;100587.75;4997956;28;20191;-77
2022/07/07 00:57:33;;;;;;;4.50;1.10;;;;;;;16.59;57.72;100589.91;4994023;28;20179;-77
2022/07/07 01:00:05;;;;;;;3.00;1.37;;;;;;;16.60;57.86;100594.16;4992640;28;20552;-76
2022/07/07 01:02:31;;;;;;;2.80;1.10;;;;;;;16.76;57.39;100593.06;4966713;28;20215;-75
2022/07/07 01:04:59;;;;;;;2.20;1.23;;;;;;;16.66;57.37;100582.53;4994261;28;20242;-77
2022/07/07 01:07:26;;;;;;;2.50;1.20;;;;;;;16.62;58.21;100583.66;4992486;28;20176;-76
2022/07/07 01:09:52;;;;;;;10.17;1.33;;;;;;;16.55;58.11;100577.28;4992489;28;20258;-75
2022/07/07 01:12:18;;;;;;;2.90;1.00;;;;;;;16.52;58.37;100575.75;4998680;28;20573;-76
2022/07/07 01:14:43;;;;;;;2.97;1.17;;;;;;;16.61;57.51;100564.66;4994105;28;20195;-76
2022/07/07 01:17:08;;;;;;;3.70;1.13;;;;;;;16.77;57.12;100560.97;4992668;28;20635;-76
2022/07/07 01:19:34;;;;;;;4.17;1.20;;;;;;;16.70;57.34;100551.97;4996295;28;20585;-76
2022/07/07 01:22:22;;;;;;;4.80;1.20;;;;;;;16.57;57.29;100555.44;4985314;28;20260;-76
2022/07/07 01:24:48;;;;;;;4.03;1.17;;;;;;;16.74;57.30;100562.00;4992015;28;20235;-77
2022/07/07 01:27:17;;;;;;;2.93;1.23;;;;;;;16.86;57.32;100562.88;4993207;28;20601;-77
2022/07/07 01:29:47;;;;;;;2.23;1.00;;;;;;;16.84;56.79;100556.13;4992672;28;20250;-76
2022/07/07 01:32:13;;;;;;;2.17;0.90;;;;;;;16.90;56.54;100558.28;4983051;28;20219;-77
2022/07/07 01:34:40;;;;;;;7.93;1.20;;;;;;;16.95;56.18;100551.00;4993904;28;20260;-77
2022/07/07 01:37:06;;;;;;;2.50;1.37;;;;;;;16.96;56.43;100550.06;5007988;28;20203;-76
2022/07/07 01:39:31;;;;;;;3.10;1.13;;;;;;;16.88;56.14;100544.56;4991585;28;20264;-74
2022/07/07 01:41:56;;;;;;;3.60;1.10;;;;;;;16.89;56.40;100547.06;4985070;28;20210;-75
2022/07/07 01:44:22;;;;;;;1.10;1.00;;;;;;;16.85;56.82;100537.84;4992127;28;20706;-74
2022/07/07 01:46:48;;;;;;;2.97;1.17;;;;;;;16.88;57.98;100536.78;4991912;28;20179;-75
2022/07/07 01:49:13;;;;;;;3.87;1.07;;;;;;;16.81;56.57;100530.38;4991493;28;20261;-77
2022/07/07 01:51:39;;;;;;;2.70;1.03;;;;;;;16.90;56.07;100529.69;4994834;28;20298;-76
2022/07/07 01:54:04;;;;;;;3.00;1.10;;;;;;;16.99;55.73;100523.84;4996178;28;20237;-76
2022/07/07 01:56:30;;;;;;;1.00;0.90;;;;;;;16.90;56.04;100525.31;4993047;28;20187;-76
2022/07/07 01:58:55;;;;;;;2.70;1.30;;;;;;;16.81;56.63;100522.56;4991196;28;20179;-76
2022/07/07 02:01:20;;;;;;;2.77;1.00;;;;;;;16.78;56.33;100523.63;4984902;28;20617;-75
2022/07/07 02:03:46;;;;;;;1.73;1.17;;;;;;;16.86;56.28;100520.50;4991419;28;20186;-76
2022/07/07 02:06:11;;;;;;;2.43;1.20;;;;;;;16.83;56.96;100528.50;4991758;28;20190;-77
2022/07/07 02:08:36;;;;;;;2.60;1.07;;;;;;;16.90;56.40;100520.13;4992326;28;20203;-76
2022/07/07 02:11:13;;;;;;;2.60;0.80;;;;;;;16.87;56.27;100522.13;4989983;28;20694;-77
2022/07/07 02:13:50;;;;;;;3.70;1.03;;;;;;;16.91;55.92;100518.38;4991375;28;20592;-76
2022/07/07 02:16:21;;;;;;;1.57;1.00;;;;;;;17.00;55.96;100517.69;4991490;28;20278;-77
2022/07/07 02:18:48;;;;;;;1.30;0.90;;;;;;;17.06;55.05;100511.22;4991353;28;20179;-75
2022/07/07 02:21:15;;;;;;;2.27;0.97;;;;;;;17.12;55.90;100515.97;4984588;28;20322;-76
2022/07/07 02:23:45;;;;;;;3.30;1.40;;;;;;;17.09;54.96;100521.38;4987873;28;20543;-75
2022/07/07 02:26:11;;;;;;;3.20;0.90;;;;;;;17.07;55.26;100518.09;4982791;28;20223;-76
2022/07/07 02:28:37;;;;;;;3.03;1.10;;;;;;;17.05;55.04;100518.19;4990678;28;20554;-76
2022/07/07 02:31:02;;;;;;;2.50;1.27;;;;;;;17.05;55.46;100515.56;4979483;28;20242;-76
2022/07/07 02:33:28;;;;;;;1.90;1.00;;;;;;;17.09;55.49;100510.97;4978461;28;20187;-76
2022/07/07 02:35:54;;;;;;;2.93;1.30;;;;;;;17.07;55.42;100513.69;4999939;28;20203;-77
2022/07/07 02:38:22;;;;;;;1.50;1.10;;;;;;;17.01;56.01;100505.56;4991258;28;20265;-76
2022/07/07 02:40:47;;;;;;;1.77;1.27;;;;;;;17.02;56.19;100513.22;4983511;28;20235;-78
2022/07/07 02:43:12;;;;;;;6.67;1.07;;;;;;;16.92;57.02;100514.88;5001635;28;20230;-77
2022/07/07 02:45:40;;;;;;;1.93;0.93;;;;;;;16.90;56.87;100507.13;4992012;28;20171;-76
2022/07/07 02:48:06;;;;;;;8.93;1.40;;;;;;;16.93;57.42;100508.69;4992175;28;20215;-76
2022/07/07 02:50:31;;;;;;;4.40;1.10;;;;;;;16.86;56.77;100504.91;4983638;28;20242;-77
2022/07/07 02:52:56;;;;;;;1.73;1.10;;;;;;;16.92;57.94;100509.66;5006618;28;20193;-77
2022/07/07 02:55:21;;;;;;;4.27;1.17;;;;;;;16.84;57.80;100517.16;4992663;28;20194;-76
2022/07/07 02:57:47;;;;;;;2.40;1.13;;;;;;;16.84;57.61;100519.75;4990679;28;20175;-76
2022/07/07 03:00:13;;;;;;;1.83;0.90;;;;;;;16.73;58.48;100513.59;4970287;28;20218;-75
2022/07/07 03:02:38;;;;;;;1.73;1.00;;;;;;;16.86;58.19;100515.28;4975843;28;20623;-76
2022/07/07 03:05:04;;;;;;;4.03;1.37;;;;;;;16.73;58.39;100500.63;4990980;28;20191;-76
2022/07/07 03:07:29;;;;;;;2.27;1.30;;;;;;;16.83;57.99;100499.91;4992261;28;20270;-76
2022/07/07 03:09:54;;;;;;;2.53;1.23;;;;;;;16.86;57.96;100499.72;4976607;28;20246;-78
2022/07/07 03:12:20;;;;;;;2.43;0.97;;;;;;;16.92;57.71;100501.88;4997375;28;20237;-78
2022/07/07 03:14:45;;;;;;;3.13;1.10;;;;;;;16.85;57.78;100505.84;4990553;28;20718;-77
2022/07/07 03:17:10;;;;;;;1.40;1.10;;;;;;;16.88;57.11;100503.00;4982436;28;20285;-77
2022/07/07 03:19:35;;;;;;;2.63;1.53;;;;;;;17.02;57.16;100489.84;5004128;28;20199;-77
2022/07/07 03:22:01;;;;;;;1.20;1.00;;;;;;;17.06;56.66;100496.44;4983493;28;20721;-77
2022/07/07 03:24:29;;;;;;;3.73;1.10;;;;;;;16.95;56.07;100486.03;4987332;28;20527;-69
2022/07/07 03:26:54;;;;;;;3.50;1.13;;;;;;;16.97;57.00;100489.34;4982422;28;20206;-69
2022/07/07 03:29:19;;;;;;;2.90;1.20;;;;;;;17.07;56.66;100495.50;4985689;28;20215;-69
2022/07/07 03:31:45;;;;;;;6.40;1.60;;;;;;;16.97;56.34;100488.50;4949886;28;20211;-67
2022/07/07 03:34:10;;;;;;;3.50;1.20;;;;;;;17.02;56.67;100484.63;4973156;28;20192;-68
2022/07/07 03:36:35;;;;;;;2.10;1.00;;;;;;;17.09;56.07;100483.25;4987843;28;20195;-68
2022/07/07 03:39:00;;;;;;;2.90;1.27;;;;;;;17.15;55.93;100491.50;4977062;28;20192;-68
2022/07/07 03:41:26;;;;;;;4.17;1.30;;;;;;;17.22;56.23;100495.31;4975845;28;20581;-68
2022/07/07 03:43:51;;;;;;;2.63;1.30;;;;;;;16.72;57.76;100496.34;4981995;28;20175;-68
2022/07/07 03:46:16;;;;;;;1.30;1.13;;;;;;;17.00;57.52;100491.72;4973648;28;20650;-68
2022/07/07 03:48:41;;;;;;;7.37;1.40;;;;;;;17.03;56.88;100488.91;4971635;28;20274;-67
2022/07/07 03:51:07;;;;;;;6.90;1.50;;;;;;;17.12;56.28;100491.72;4973214;28;20270;-68
2022/07/07 03:53:32;;;;;;;5.17;1.60;;;;;;;17.10;56.69;100487.50;4987410;28;20198;-68
2022/07/07 03:55:58;;;;;;;3.53;1.20;;;;;;;16.92;57.06;100475.91;4983012;28;20202;-68
2022/07/07 03:58:23;;;;;;;2.27;1.10;;;;;;;16.91;57.32;100476.78;4995388;28;20179;-67
2022/07/07 04:00:48;;;;;;;1.50;1.00;;;;;;;17.02;57.13;100476.84;4990007;28;20242;-69
2022/07/07 04:03:13;;;;;;;5.77;1.50;;;;;;;16.94;57.17;100474.84;5005015;28;20202;-69
2022/07/07 04:05:39;;;;;;;1.53;1.10;;;;;;;16.90;57.64;100475.94;5010058;28;20184;-66
2022/07/07 04:08:04;;;;;;;2.97;1.30;;;;;;;17.07;57.82;100479.09;4995273;28;20348;-68
2022/07/07 04:10:29;;;;;;;1.70;1.17;;;;;;;17.29;56.70;100475.69;4987723;28;20736;-67
2022/07/07 04:12:55;;;;;;;2.23;1.00;;;;;;;17.46;56.09;100470.94;5006834;28;20594;-67
2022/07/07 04:15:20;;;;;;;2.40;1.30;;;;;;;17.48;56.62;100469.88;4994601;28;20207;-66
2022/07/07 04:17:46;;;;;;;2.70;1.57;;;;;;;17.44;57.03;100465.88;4994856;28;20689;-67
2022/07/07 04:20:11;;;;;;;2.50;1.30;;;;;;;17.41;57.68;100459.16;4991802;28;20204;-68
2022/07/07 04:22:37;;;;;;;3.87;1.97;;;;;;;17.56;57.42;100457.13;5008617;28;20233;-67
2022/07/07 04:25:03;;;;;;;3.63;1.50;;;;;;;17.66;57.43;100453.78;4994226;28;20350;-67
2022/07/07 04:27:28;;;;;;;5.60;1.90;;;;;;;17.62;57.07;100445.38;4985609;28;20592;-67
2022/07/07 04:29:54;;;;;;;3.53;1.83;;;;;;;17.57;58.09;100437.94;4994113;28;20238;-68
2022/07/07 04:32:19;;;;;;;3.37;1.60;;;;;;;17.74;58.07;100449.63;4999664;28;20253;-67
2022/07/07 04:34:44;;;;;;;4.87;1.53;;;;;;;17.77;57.72;100438.13;4999486;28;20277;-67
2022/07/07 04:37:10;;;;;;;5.30;1.50;;;;;;;17.92;56.48;100436.09;5002301;28;20638;-68
2022/07/07 04:39:35;;;;;;;2.10;1.70;;;;;;;17.95;56.25;100437.66;4993876;28;20187;-67
2022/07/07 04:42:00;;;;;;;3.30;1.67;;;;;;;17.91;57.12;100443.06;4999278;28;20345;-68
2022/07/07 04:44:26;;;;;;;2.97;1.60;;;;;;;17.88;56.93;100427.69;4994222;28;20199;-67
2022/07/07 04:46:51;;;;;;;4.07;1.70;;;;;;;17.99;56.50;100431.25;4994356;28;20206;-67
2022/07/07 04:49:16;;;;;;;4.10;2.00;;;;;;;17.88;57.13;100435.50;4994121;28;20222;-68
2022/07/07 04:51:42;;;;;;;3.47;1.70;;;;;;;17.91;56.98;100431.81;4996391;28;20300;-68
2022/07/07 04:54:07;;;;;;;5.57;1.47;;;;;;;18.05;57.02;100423.78;4997932;28;20486;-68
2022/07/07 04:56:32;;;;;;;4.50;1.83;;;;;;;18.05;56.41;100428.16;4993697;28;20184;-66
2022/07/07 04:58:57;;;;;;;2.03;1.70;;;;;;;18.12;57.18;100428.47;4993689;28;20193;-68
2022/07/07 05:01:23;;;;;;;2.63;1.77;;;;;;;18.08;57.00;100440.91;4993968;28;20234;-68
2022/07/07 05:03:48;;;;;;;2.13;1.50;;;;;;;17.97;57.72;100428.75;4992776;28;20175;-68
2022/07/07 05:06:14;;;;;;;3.47;1.77;;;;;;;18.19;57.90;100422.63;4992646;28;20604;-68
2022/07/07 05:08:39;;;;;;;3.60;2.00;;;;;;;18.04;58.46;100421.31;4993350;28;20614;-68
2022/07/07 05:11:05;;;;;;;2.07;1.50;;;;;;;18.11;58.62;100426.81;4992968;28;20300;-68
2022/07/07 05:13:30;;;;;;;4.17;1.77;;;;;;;17.97;58.72;100431.38;5000598;28;20195;-68
2022/07/07 05:15:56;;;;;;;2.87;1.77;;;;;;;18.05;58.64;100423.78;4993755;28;20289;-67
2022/07/07 05:18:22;;;;;;;3.67;2.00;;;;;;;18.12;58.74;100426.72;4997375;28;20308;-68
2022/07/07 05:20:47;;;;;;;2.80;2.10;;;;;;;18.08;59.08;100420.09;4998166;28;20693;-68
2022/07/07 05:23:12;;;;;;;6.57;2.10;;;;;;;17.94;60.77;100416.00;5002593;28;20183;-68
2022/07/07 05:25:37;;;;;;;4.90;1.70;;;;;;;17.85;61.82;100416.69;4984981;28;20235;-69
2022/07/07 05:28:03;;;;;;;1.97;1.80;;;;;;;17.96;60.39;100415.88;4993433;28;20674;-67
2022/07/07 05:30:28;;;;;;;5.83;2.00;;;;;;;17.94;61.40;100420.38;5000782;28;20234;-68
2022/07/07 05:32:54;;;;;;;7.13;2.00;;;;;;;18.11;61.40;100413.81;4992593;28;20191;-68
2022/07/07 05:35:19;;;;;;;5.43;2.00;;;;;;;18.20;60.96;100415.69;4999145;28;20176;-69
2022/07/07 05:37:44;;;;;;;3.47;1.97;;;;;;;18.09;61.87;100413.94;4993280;28;20211;-68
2022/07/07 05:40:10;;;;;;;2.90;1.87;;;;;;;17.92;62.48;100420.47;4983529;28;20187;-69
2022/07/07 05:42:35;;;;;;;4.97;1.77;;;;;;;18.08;62.71;100421.88;5007581;28;20179;-67
2022/07/07 05:45:01;;;;;;;4.60;1.83;;;;;;;18.14;62.51;100422.19;4992932;28;20202;-67
2022/07/07 05:47:26;;;;;;;4.43;1.63;;;;;;;18.10;62.40;100426.00;4993378;28;20188;-65
2022/07/07 05:49:52;;;;;;;3.57;1.77;;;;;;;18.06;61.67;100425.44;4992351;28;20203;-69
2022/07/07 05:52:17;;;;;;;2.83;1.63;;;;;;;17.91;62.92;100421.41;4998071;28;20416;-68
2022/07/07 05:54:43;;;;;;;3.20;1.73;;;;;;;17.91;62.61;100424.00;5000608;28;20642;-67
2022/07/07 05:57:08;;;;;;;3.47;1.77;;;;;;;17.92;63.91;100415.25;4992843;28;20179;-67
2022/07/07 05:59:33;;;;;;;2.23;1.57;;;;;;;18.10;63.17;100426.00;4992076;28;20233;-67
2022/07/07 06:01:59;;;;;;;2.90;1.60;;;;;;;18.19;62.39;100424.44;4997497;28;20227;-67
2022/07/07 06:04:26;;;;;;;3.37;1.87;;;;;;;18.08;63.81;100430.50;4993823;28;20558;-68
2022/07/07 06:06:52;;;;;;;3.07;2.00;;;;;;;18.18;63.07;100428.81;4991449;28;20176;-68
2022/07/07 06:09:18;;;;;;;3.67;1.93;;;;;;;18.08;64.04;100427.91;4992377;28;20341;-68
2022/07/07 06:11:43;;;;;;;5.40;2.00;;;;;;;18.12;64.88;100428.47;4994350;28;20230;-68
2022/07/07 06:14:08;;;;;;;4.03;1.50;;;;;;;18.18;64.81;100431.44;4987096;28;20701;-68
2022/07/07 06:16:41;;;;;;;4.23;1.73;;;;;;;18.37;63.70;100433.34;4988546;28;20183;-69
2022/07/07 06:19:11;;;;;;;3.87;1.90;;;;;;;18.33;64.64;100431.94;4990344;28;20611;-69
2022/07/07 06:21:37;;;;;;;4.67;1.80;;;;;;;18.42;64.60;100446.00;4991492;28;20241;-68
2022/07/07 06:24:03;;;;;;;6.03;2.20;;;;;;;18.47;64.78;100438.63;4992757;28;20356;-68
2022/07/07 06:26:28;;;;;;;2.13;1.80;;;;;;;18.44;65.08;100435.44;4989329;28;20282;-67
2022/07/07 06:28:54;;;;;;;3.77;1.70;;;;;;;18.51;65.30;100442.59;4987433;28;20465;-69
2022/07/07 06:31:19;;;;;;;4.53;2.00;;;;;;;18.58;64.64;100435.13;4990018;28;20237;-69
2022/07/07 06:33:44;;;;;;;4.00;2.00;;;;;;;18.68;64.30;100433.41;4995240;28;20188;-68
2022/07/07 06:36:10;;;;;;;2.10;1.80;;;;;;;18.66;64.34;100439.69;4991869;28;20778;-67
2022/07/07 06:38:35;;;;;;;4.30;1.90;;;;;;;18.78;64.85;100423.03;4991177;28;20179;-67
2022/07/07 06:41:00;;;;;;;3.70;2.03;;;;;;;18.98;64.76;100428.38;4986315;28;20664;-68
2022/07/07 06:43:26;;;;;;;4.17;1.97;;;;;;;19.35;61.83;100427.84;4997011;28;20176;-66
2022/07/07 06:45:52;;;;;;;4.83;2.30;;;;;;;19.51;61.78;100435.97;4988007;28;20187;-68
2022/07/07 06:48:17;;;;;;;4.23;2.07;;;;;;;19.51;62.66;100435.13;4990272;28;20554;-69
2022/07/07 06:50:42;;;;;;;6.40;2.10;;;;;;;19.81;61.03;100434.22;4985383;28;20675;-69
2022/07/07 06:53:08;;;;;;;4.40;2.27;;;;;;;19.94;60.50;100431.38;5000547;28;20538;-70
2022/07/07 06:55:33;;;;;;;4.07;2.20;;;;;;;19.87;60.99;100422.47;4989805;28;20183;-69
2022/07/07 06:57:59;;;;;;;6.20;2.00;;;;;;;19.78;61.43;100425.84;4984777;28;20227;-70
2022/07/07 07:00:24;;;;;;;6.30;2.40;;;;;;;19.42;64.57;100421.09;4968806;28;20240;-69
2022/07/07 07:02:50;;;;;;;2.60;1.93;;;;;;;19.22;64.79;100422.84;4973088;28;20597;-69
2022/07/07 07:05:16;;;;;;;4.60;1.90;;;;;;;19.18;66.77;100424.88;4976915;28;20198;-68
2022/07/07 07:07:41;;;;;;;4.13;2.13;;;;;;;19.09;67.27;100410.03;4973214;28;20184;-77
2022/07/07 07:10:07;;;;;;;4.17;2.10;;;;;;;19.32;67.54;100402.00;4974985;28;20729;-75
2022/07/07 07:12:32;;;;;;;3.23;2.00;;;;;;;19.53;66.37;100412.34;4985748;28;20291;-76
2022/07/07 07:14:58;;;;;;;2.63;2.10;;;;;;;19.85;63.74;100408.72;4982953;28;20240;-76
2022/07/07 07:17:23;;;;;;;2.53;1.93;;;;;;;20.18;62.62;100418.88;4990480;28;20310;-74
2022/07/07 07:19:48;;;;;;;5.27;1.80;;;;;;;20.37;60.96;100426.69;4981134;28;20666;-75
2022/07/07 07:22:14;;;;;;;2.20;2.00;;;;;;;20.55;60.66;100431.22;4996986;28;20360;-76
2022/07/07 07:24:39;;;;;;;3.93;2.03;;;;;;;20.40;62.10;100434.25;4992185;28;20721;-76
2022/07/07 07:27:04;;;;;;;3.37;1.90;;;;;;;20.58;61.28;100429.13;4993192;28;20242;-76
2022/07/07 07:29:30;;;;;;;2.53;1.90;;;;;;;20.95;59.31;100432.78;4995777;28;20214;-75
2022/07/07 07:31:55;;;;;;;1.90;1.70;;;;;;;21.17;59.28;100426.34;4952949;28;20229;-76
2022/07/07 07:34:20;;;;;;;3.10;1.90;;;;;;;21.14;58.16;100424.03;4998541;28;20191;-75
2022/07/07 07:36:46;;;;;;;3.83;1.97;;;;;;;21.20;57.71;100427.84;5004312;28;20199;-76
2022/07/07 07:39:11;;;;;;;1.73;1.60;;;;;;;20.77;59.69;100432.72;4995548;28;20655;-75
2022/07/07 07:41:38;;;;;;;4.77;2.20;;;;;;;20.64;60.83;100427.75;4997929;28;20235;-76
2022/07/07 07:44:03;;;;;;;4.93;1.90;;;;;;;20.49;62.23;100427.34;4994726;28;20241;-76
2022/07/07 07:46:29;;;;;;;6.90;1.90;;;;;;;20.46;63.24;100430.25;4995985;28;20604;-75
2022/07/07 07:48:54;;;;;;;4.03;1.73;;;;;;;20.62;62.53;100435.72;4994069;28;20221;-76
2022/07/07 07:51:19;;;;;;;3.30;2.00;;;;;;;20.75;61.72;100425.00;4987417;28;20318;-76
2022/07/07 07:53:45;;;;;;;4.20;2.03;;;;;;;20.59;63.15;100425.56;5010334;28;20257;-76
2022/07/07 07:56:11;;;;;;;2.93;2.07;;;;;;;20.76;63.83;100417.97;4997669;28;20198;-75
2022/07/07 07:58:36;;;;;;;3.00;1.70;;;;;;;21.00;61.81;100424.50;4991749;28;20652;-76
2022/07/07 08:01:03;;;;;;;3.03;1.70;;;;;;;21.06;61.50;100426.53;4987423;28;20222;-75
2022/07/07 08:03:28;;;;;;;3.17;1.70;;;;;;;21.24;61.99;100424.00;5002720;28;20179;-76
2022/07/07 08:05:53;;;;;;;5.87;1.70;;;;;;;21.72;60.21;100412.44;4995662;28;20198;-76
2022/07/07 08:08:19;;;;;;;2.10;1.90;;;;;;;22.05;56.94;100406.66;4993883;28;20637;-76
2022/07/07 08:10:44;;;;;;;3.83;1.87;;;;;;;24.06;50.11;100412.47;4990404;28;20349;-75
2022/07/07 08:13:09;;;;;;;6.73;2.00;;;;;;;25.23;46.10;100414.69;4994070;28;20655;-76
2022/07/07 08:15:35;;;;;;;2.80;1.80;;;;;;;25.90;42.95;100412.47;4993218;28;20189;-75
2022/07/07 08:18:00;;;;;;;4.35;1.85;;;;;;;27.29;41.27;100408.56;4991575;28;20702;-75
2022/07/07 08:20:26;;;;;;;2.75;1.45;;;;;;;28.23;37.79;100414.78;4990897;28;20314;-75
2022/07/07 08:22:51;;;;;;;2.83;1.60;;;;;;;27.60;38.65;100418.91;4993539;28;20288;-75
2022/07/07 08:25:17;;;;;;;1.60;1.40;;;;;;;26.06;41.71;100420.28;4994604;28;20219;-75
2022/07/07 08:27:42;;;;;;;1.88;1.23;;;;;;;24.88;45.89;100432.59;4993521;28;20191;-74
2022/07/07 08:30:08;;;;;;;2.67;1.33;;;;;;;23.80;47.99;100423.94;4982525;28;20226;-73
2022/07/07 08:32:33;;;;;;;1.95;1.63;;;;;;;23.02;53.06;100422.38;4992284;28;20183;-74
2022/07/07 08:34:59;;;;;;;1.53;1.33;;;;;;;22.59;54.31;100424.94;5000875;28;20175;-73
2022/07/07 08:37:24;;;;;;;4.30;1.37;;;;;;;22.25;56.02;100423.03;4996792;28;20705;-75
2022/07/07 08:39:50;;;;;;;2.30;1.37;;;;;;;21.98;56.94;100416.94;4993158;28;20350;-75
2022/07/07 08:42:16;;;;;;;2.70;1.63;;;;;;;22.21;56.84;100417.25;4983484;28;20618;-74
2022/07/07 08:44:41;;;;;;;3.57;1.87;;;;;;;22.17;56.66;100412.50;4992140;28;20179;-75
2022/07/07 08:47:07;;;;;;;1.63;1.50;;;;;;;22.33;57.03;100410.00;4992394;28;20176;-75
2022/07/07 08:49:32;;;;;;;5.93;1.60;;;;;;;22.19;57.53;100414.00;4991157;28;20591;-75
2022/07/07 08:51:58;;;;;;;3.37;1.30;;;;;;;22.32;56.58;100415.38;4984777;28;20229;-75
2022/07/07 08:54:25;;;;;;;4.13;1.50;;;;;;;22.27;57.40;100409.78;4992115;28;20604;-73
2022/07/07 08:56:51;;;;;;;5.20;1.47;;;;;;;21.87;57.30;100414.53;4993628;28;20289;-74
2022/07/07 08:59:17;;;;;;;1.67;1.50;;;;;;;21.80;57.99;100413.50;4992719;28;20314;-74
2022/07/07 09:01:52;;;;;;;3.83;1.57;;;;;;;21.89;58.18;100416.03;4984567;28;20258;-74
2022/07/07 09:04:18;;;;;;;2.47;1.23;;;;;;;21.72;59.63;100412.44;4991852;28;20171;-75
2022/07/07 09:07:04;;;;;;;2.40;1.53;;;;;;;21.70;59.35;100410.94;4987085;28;20202;-75
2022/07/07 09:09:35;;;;;;;3.07;1.53;;;;;;;21.32;60.06;100415.41;4991935;28;20199;-75
2022/07/07 09:12:01;;;;;;;2.87;1.50;;;;;;;21.07;61.39;100436.03;4984554;28;20241;-76
2022/07/07 09:14:35;;;;;;;5.07;1.53;;;;;;;20.99;62.65;100428.91;4988552;28;20379;-75
2022/07/07 09:17:00;;;;;;;3.70;1.60;;;;;;;20.69;65.40;100443.84;4989466;28;20187;-75
2022/07/07 09:19:25;;;;;;;1.90;1.30;;;;;;;19.90;79.48;100448.28;5000360;28;20283;-75
2022/07/07 09:21:51;;;;;;;4.13;1.50;;;;;;;19.54;88.94;100450.53;4980626;28;20234;-77
2022/07/07 09:24:16;;;;;;;4.27;1.90;;;;;;;19.13;95.15;100450.53;4990369;28;20188;-76
2022/07/07 09:26:47;;;;;;;3.43;1.87;;;;;;;19.13;99.74;100445.31;4954004;28;1092308;-75
2022/07/07 09:29:15;;;;;;;4.43;1.87;;;;;;;19.11;98.69;100454.22;4989823;28;20211;-76
2022/07/07 09:32:00;;;;;;;1.80;1.43;;;;;;;19.37;98.44;100461.59;4982814;28;20215;-75
2022/07/07 09:34:35;;;;;;;1.83;1.37;;;;;;;19.17;96.27;100461.53;4992866;28;20614;-78
2022/07/07 09:39:54;;;;;;;4.73;1.80;;;;;;;18.62;100.00;100472.16;4987646;28;20260;-77
2022/07/07 09:42:26;;;;;;;2.03;1.87;;;;;;;18.45;100.00;100466.56;4982300;28;20655;-59
2022/07/07 09:44:53;;;;;;;2.90;1.90;;;;;;;18.66;100.00;100471.78;4991304;28;20176;-57
2022/07/07 09:47:21;;;;;;;2.00;1.80;;;;;;;18.91;100.00;100487.19;4992023;28;20184;-58
2022/07/07 09:50:11;;;;;;;1.87;1.77;;;;;;;19.15;96.93;100489.50;4990239;28;20212;-60
2022/07/07 09:52:39;;;;;;;3.63;1.80;;;;;;;19.55;92.88;100490.47;4982296;28;20314;-58
2022/07/07 09:55:11;;;;;;;3.47;1.90;;;;;;;19.72;90.07;100494.25;4994757;28;20183;-58
2022/07/07 09:57:37;;;;;;;1.97;1.87;;;;;;;19.88;90.93;100501.59;4989013;28;20187;-59
2022/07/07 10:00:04;;;;;;;4.97;2.13;;;;;;;19.58;92.91;100504.09;4983683;28;20579;-59
2022/07/07 10:02:30;;;;;;;1.70;1.50;;;;;;;19.21;91.96;100502.03;4988292;28;20348;-57
2022/07/07 10:04:58;;;;;;;2.40;1.20;;;;;;;19.26;91.85;100504.25;4973550;28;20647;-58
2022/07/07 10:07:29;;;;;;;1.93;1.47;;;;;;;19.49;93.02;100499.69;4979339;28;20180;-58
2022/07/07 10:10:02;;;;;;;3.33;1.80;;;;;;;19.58;91.36;100501.47;4985903;28;20208;-58
2022/07/07 10:12:28;;;;;;;2.30;1.60;;;;;;;20.09;91.83;100501.50;4974236;28;20255;-58
2022/07/07 10:14:59;;;;;;;1.50;1.33;;;;;;;20.35;85.80;100501.78;4974893;28;20191;-58
2022/07/07 10:17:26;;;;;;;1.17;1.07;;;;;;;20.88;81.00;100500.50;4988793;28;20673;-59
2022/07/07 10:19:52;;;;;;;2.30;1.10;;;;;;;21.11;77.38;100505.38;4991366;28;20614;-59
2022/07/07 10:22:18;;;;;;;0.90;0.80;;;;;;;21.17;75.04;100512.66;4981449;28;20395;-57
2022/07/07 10:24:44;;;;;;;1.57;0.80;;;;;;;21.04;75.44;100517.41;4987446;28;20183;-57
2022/07/07 10:27:14;;;;;;;1.67;1.17;;;;;;;20.79;75.72;100523.09;4984068;28;20195;-57
2022/07/07 10:29:45;;;;;;;2.30;1.00;;;;;;;20.58;76.75;100518.00;4977657;28;20203;-57
2022/07/07 10:32:16;;;;;;;1.00;1.00;;;;;;;20.72;75.11;100515.97;4972720;28;20227;-59
2022/07/07 10:34:52;;;;;;;2.73;0.80;;;;;;;20.53;75.93;100521.97;4982451;28;20653;-59
2022/07/07 10:37:19;;;;;;;1.10;1.00;;;;;;;20.47;76.88;100523.38;4981809;28;20241;-58
2022/07/07 10:39:47;;;;;;;2.13;0.73;;;;;;;20.64;76.38;100519.25;4980276;28;20179;-59
2022/07/07 10:42:30;;;;;;;0.77;0.77;;;;;;;20.63;74.25;100530.66;4975030;28;20247;-60
2022/07/07 10:44:56;;;;;;;0.70;0.70;;;;;;;20.44;74.39;100542.75;4978387;28;20184;-61
2022/07/07 10:47:21;;;;;;;0.80;0.80;;;;;;;20.50;74.10;100543.16;4976781;28;20180;-59
2022/07/07 10:49:47;;;;;;;0.73;0.73;;;;;;;20.60;73.70;100539.59;4972318;28;20203;-58
2022/07/07 10:52:15;;;;;;;1.30;0.90;;;;;;;20.80;70.83;100545.66;4980904;28;20237;-59
2022/07/07 10:54:43;;;;;;;1.87;0.80;;;;;;;20.43;73.78;100555.97;5002345;28;20187;-58
2022/07/07 10:57:08;;;;;;;0.70;0.70;;;;;;;20.18;74.99;100558.16;4987704;28;20630;-58
2022/07/07 10:59:59;;;;;;;1.07;0.80;;;;;;;19.97;70.52;100519.03;4991307;28;20183;-58
2022/07/07 11:02:32;;;;;;;5.07;0.50;;;;;;;19.90;64.04;100575.38;4970913;28;20262;-58
2022/07/07 11:04:59;;;;;;;2.87;0.70;;;;;;;19.99;63.75;100595.47;4990490;28;20250;-58
2022/07/07 11:07:26;;;;;;;2.63;0.53;;;;;;;20.26;61.45;100591.41;4983331;28;20183;-59
2022/07/07 11:09:59;;;;;;;2.73;0.80;;;;;;;20.33;60.64;100595.16;4981409;28;20192;-59
2022/07/07 11:12:48;;;;;;;2.30;0.73;;;;;;;21.02;59.26;100589.94;4985277;28;20246;-59
2022/07/07 11:15:33;;;;;;;1.27;0.57;;;;;;;21.91;54.60;100575.63;4982161;28;20256;-60
2022/07/07 11:18:00;;;;;;;2.13;0.40;;;;;;;22.17;51.24;100575.75;4999622;28;20202;-59
2022/07/07 11:20:27;;;;;;;0.73;0.40;;;;;;;22.15;51.78;100563.75;4982788;28;20234;-59
2022/07/07 11:23:05;;;;;;;3.20;0.50;;;;;;;21.77;49.63;100572.53;5005235;28;20259;-59
2022/07/07 11:25:30;;;;;;;2.57;0.60;;;;;;;21.74;49.86;100571.97;4984643;28;20227;-59